Time;durP1;ratioP1;P1;durP2;ratioP2;P2;SDS_P1;SDS_P2;PMS_P1;PMS_P2;Temp;Humidity;BMP_temperature;BMP_pressure;BME280_temperature;BME280_humidity;BME280_pressure;Samples;Min_cycle;Max_cycle;Signal;HPM_P1;HPM_P2
2022/02/06 00:01:16;;;;;;;11.93;2.35;;;7.70;99.90;;;;;;4138191;28;19941;-65
2022/02/06 00:03:17;;;;;;;12.02;2.17;;;7.60;99.90;;;;;;4140717;28;20140;-65
2022/02/06 00:05:18;;;;;;;7.60;2.00;;;7.60;99.90;;;;;;4140151;28;20031;-65
2022/02/06 00:07:18;;;;;;;7.88;2.08;;;7.60;99.90;;;;;;4138452;28;20034;-65
2022/02/06 00:09:19;;;;;;;10.10;2.42;;;7.60;99.90;;;;;;4140479;28;20061;-65
2022/02/06 00:11:20;;;;;;;8.98;2.42;;;7.60;99.90;;;;;;4137819;28;20042;-65
2022/02/06 00:13:21;;;;;;;10.18;2.45;;;7.60;99.90;;;;;;4139671;28;20038;-66
2022/02/06 00:15:22;;;;;;;11.35;3.10;;;7.60;99.90;;;;;;4140207;28;20134;-66
2022/02/06 00:17:22;;;;;;;11.95;2.50;;;7.60;99.90;;;;;;4140736;28;20034;-65
2022/02/06 00:19:23;;;;;;;8.93;2.50;;;7.60;99.90;;;;;;4137083;28;20057;-65
2022/02/06 00:21:23;;;;;;;7.18;2.30;;;7.60;99.90;;;;;;4135233;28;20096;-65
2022/02/06 00:23:27;;;;;;;9.07;1.98;;;7.60;99.90;;;;;;4132868;28;20034;-65
2022/02/06 00:25:35;;;;;;;11.98;2.65;;;7.60;99.90;;;;;;4133537;28;20050;-65
2022/02/06 00:27:56;;;;;;;5.50;2.05;;;7.60;99.90;;;;;;4141167;28;20473;-65
2022/02/06 00:30:11;;;;;;;5.13;2.13;;;7.60;99.90;;;;;;4137794;28;20030;-66
2022/02/06 00:32:25;;;;;;;11.95;2.70;;;7.60;99.90;;;;;;4138530;28;20038;-68
2022/02/06 00:42:58;;;;;;;9.82;2.30;;;7.60;99.90;;;;;;4138440;28;20034;-66
2022/02/06 00:44:59;;;;;;;7.45;2.13;;;7.60;99.90;;;;;;4142222;28;20053;-65
2022/02/06 00:47:02;;;;;;;6.90;2.35;;;7.70;99.90;;;;;;4138192;28;20078;-65
2022/02/06 00:49:13;;;;;;;7.47;2.15;;;7.60;99.90;;;;;;4142565;28;20034;-66
2022/02/06 00:51:20;;;;;;;8.70;2.05;;;7.70;99.90;;;;;;4138986;28;20038;-67
2022/02/06 00:53:21;;;;;;;7.28;1.80;;;7.60;99.90;;;;;;4135455;28;20078;-65
2022/02/06 00:55:21;;;;;;;5.45;2.15;;;7.60;99.90;;;;;;4140848;28;20046;-66
2022/02/06 00:57:22;;;;;;;10.70;2.30;;;7.70;99.90;;;;;;4138683;28;20129;-66
2022/02/06 00:59:22;;;;;;;5.95;2.28;;;7.70;99.90;;;;;;4143471;28;20038;-66
2022/02/06 01:01:23;;;;;;;5.78;1.73;;;7.70;99.90;;;;;;4136460;28;20353;-66
2022/02/06 01:03:23;;;;;;;10.43;2.70;;;7.70;99.90;;;;;;4139800;28;20074;-66
2022/02/06 01:05:24;;;;;;;9.60;2.35;;;7.70;99.90;;;;;;4138899;28;20140;-66
2022/02/06 01:07:25;;;;;;;7.93;2.08;;;7.70;99.90;;;;;;4140790;28;20107;-66
2022/02/06 01:09:25;;;;;;;8.75;2.00;;;7.80;99.90;;;;;;4134132;28;20038;-66
2022/02/06 01:11:26;;;;;;;7.32;2.05;;;7.80;99.90;;;;;;4142885;28;20239;-65
2022/02/06 01:13:38;;;;;;;11.10;2.42;;;7.80;99.90;;;;;;4137327;28;20140;-66
2022/02/06 01:15:44;;;;;;;11.90;2.50;;;7.80;99.90;;;;;;4141694;28;20052;-66
2022/02/06 01:18:14;;;;;;;7.45;2.20;;;7.80;99.90;;;;;;4136518;28;20112;-67
2022/02/06 01:20:20;;;;;;;7.43;1.98;;;7.80;99.90;;;;;;4138394;28;20038;-66
2022/02/06 01:22:24;;;;;;;7.93;2.13;;;7.90;99.90;;;;;;4131392;28;20045;-66
2022/02/06 01:24:39;;;;;;;7.65;2.33;;;7.80;99.90;;;;;;4135377;28;20050;-66
2022/02/06 01:28:47;;;;;;;11.52;2.30;;;7.90;99.90;;;;;;4135202;28;20065;-65
2022/02/06 01:30:55;;;;;;;9.75;2.20;;;7.90;99.90;;;;;;4134558;28;20029;-65
2022/02/06 01:33:01;;;;;;;8.07;2.40;;;7.90;99.90;;;;;;4134259;28;20484;-65
2022/02/06 01:35:10;;;;;;;5.70;1.70;;;7.90;99.90;;;;;;4134052;28;20030;-67
2022/02/06 01:37:23;;;;;;;9.10;2.20;;;7.90;99.90;;;;;;4139046;28;20046;-65
2022/02/06 01:41:50;;;;;;;8.50;1.95;;;7.90;99.90;;;;;;4112321;28;20130;-65
2022/02/06 01:44:04;;;;;;;5.88;1.90;;;7.80;99.90;;;;;;4133718;28;20046;-65
2022/02/06 02:06:54;;;;;;;6.03;2.00;;;7.70;99.90;;;;;;4131819;28;20405;-65
2022/02/06 02:13:44;;;;;;;11.95;2.63;;;7.60;99.90;;;;;;4133104;28;20038;-65
2022/02/06 02:18:38;;;;;;;7.45;1.95;;;7.60;99.90;;;;;;4052207;29;20139;-65
2022/02/06 02:23:20;;;;;;;8.55;2.25;;;7.60;99.90;;;;;;4138135;28;20038;-65
2022/02/06 02:45:48;;;;;;;11.43;2.63;;;7.50;99.90;;;;;;4139472;28;20053;-65
2022/02/06 02:47:48;;;;;;;10.55;2.28;;;7.50;99.90;;;;;;4136031;28;20035;-65
2022/02/06 02:49:53;;;;;;;12.57;3.00;;;7.60;99.90;;;;;;4136268;28;20038;-65
2022/02/06 02:52:00;;;;;;;9.73;2.72;;;7.50;99.90;;;;;;4136195;28;20042;-66
2022/02/06 02:54:08;;;;;;;13.45;3.03;;;7.60;99.90;;;;;;4136766;28;20177;-65
2022/02/06 02:58:32;;;;;;;10.05;2.60;;;7.50;99.90;;;;;;4140665;28;20525;-65
2022/02/06 03:00:40;;;;;;;10.50;2.60;;;7.50;99.90;;;;;;4140644;28;20370;-64
2022/02/06 03:02:41;;;;;;;10.15;2.15;;;7.50;99.90;;;;;;4136956;28;20044;-64
2022/02/06 03:04:44;;;;;;;17.30;3.58;;;7.50;99.90;;;;;;4137990;28;20469;-64
2022/02/06 03:06:44;;;;;;;12.80;2.75;;;7.50;99.90;;;;;;4131882;28;20046;-64
2022/02/06 03:08:47;;;;;;;5.60;2.13;;;7.50;99.90;;;;;;4141073;28;20384;-64
2022/02/06 03:10:50;;;;;;;11.40;2.90;;;7.50;99.90;;;;;;4143365;28;20034;-64
2022/02/06 03:12:53;;;;;;;9.20;2.58;;;7.50;99.90;;;;;;4136187;28;20046;-64
2022/02/06 03:15:02;;;;;;;7.43;2.15;;;7.60;99.90;;;;;;4139760;28;20034;-65
2022/02/06 03:17:05;;;;;;;10.25;2.13;;;7.60;99.90;;;;;;4141355;28;20133;-64
2022/02/06 03:19:09;;;;;;;7.20;2.00;;;7.50;99.90;;;;;;4137549;28;20030;-64
2022/02/06 03:21:17;;;;;;;11.60;2.78;;;7.60;99.90;;;;;;4139854;28;20532;-64
2022/02/06 03:23:18;;;;;;;11.32;2.72;;;7.60;99.90;;;;;;4142929;28;20045;-64
2022/02/06 03:25:21;;;;;;;9.40;2.13;;;7.60;99.90;;;;;;4136176;28;20034;-65
2022/02/06 03:27:22;;;;;;;;;;;7.60;99.90;;;;;;4137477;28;20038;-64
2022/02/06 03:29:24;;;;;;;8.55;2.28;;;7.60;99.90;;;;;;4141661;28;19956;-64
2022/02/06 03:31:25;;;;;;;6.78;1.80;;;7.50;99.90;;;;;;4140622;28;20132;-64
2022/02/06 03:33:25;;;;;;;12.70;2.58;;;7.50;99.90;;;;;;4137001;28;20038;-64
2022/02/06 03:35:27;;;;;;;8.98;2.83;;;7.50;99.90;;;;;;4135402;28;20156;-64
2022/02/06 03:37:27;;;;;;;8.68;2.58;;;7.60;99.90;;;;;;4135675;28;20461;-64
2022/02/06 03:39:29;;;;;;;8.77;2.85;;;7.50;99.90;;;;;;4137191;28;20041;-64
2022/02/06 03:41:40;;;;;;;7.05;1.90;;;7.50;99.90;;;;;;4135535;28;20542;-64
2022/02/06 03:45:52;;;;;;;8.35;2.40;;;7.60;99.90;;;;;;4135010;28;20073;-64
2022/02/06 03:47:59;;;;;;;9.35;2.65;;;7.60;99.90;;;;;;4138270;28;20054;-65
2022/02/06 03:50:04;;;;;;;13.40;2.50;;;7.60;99.90;;;;;;4133129;28;20038;-65
2022/02/06 03:52:04;;;;;;;5.28;1.95;;;7.60;99.90;;;;;;4135051;28;20030;-64
2022/02/06 03:54:08;;;;;;;13.63;2.80;;;7.60;99.90;;;;;;4135011;28;20489;-64
2022/02/06 03:56:08;;;;;;;8.30;2.50;;;7.60;99.90;;;;;;4135116;28;20106;-65
2022/02/06 03:58:09;;;;;;;8.52;2.35;;;7.60;99.90;;;;;;4134526;28;20034;-64
2022/02/06 04:00:10;;;;;;;8.68;2.38;;;7.60;99.90;;;;;;4136242;28;20042;-65
2022/02/06 04:02:10;;;;;;;7.90;2.28;;;7.60;99.90;;;;;;4135839;28;20041;-65
2022/02/06 04:04:11;;;;;;;6.30;2.20;;;7.60;99.90;;;;;;4133106;28;20137;-64
2022/02/06 04:06:11;;;;;;;7.22;2.33;;;7.60;99.90;;;;;;4135511;28;20082;-64
2022/02/06 04:08:16;;;;;;;9.30;2.67;;;7.60;99.90;;;;;;4136336;28;20034;-65
2022/02/06 04:10:17;;;;;;;9.18;2.22;;;7.60;99.90;;;;;;4135591;28;20466;-65
2022/02/06 04:12:19;;;;;;;7.32;2.00;;;7.60;99.90;;;;;;4134725;28;20038;-65
2022/02/06 04:14:32;;;;;;;8.10;2.15;;;7.70;99.90;;;;;;4135124;28;20065;-65
2022/02/06 04:16:49;;;;;;;11.38;2.42;;;7.60;99.90;;;;;;4131030;28;20031;-65
2022/02/06 04:18:53;;;;;;;7.78;2.00;;;7.60;99.90;;;;;;4134174;28;20072;-65
2022/02/06 04:20:54;;;;;;;6.85;2.53;;;7.60;99.90;;;;;;4133167;28;20030;-64
2022/02/06 04:22:54;;;;;;;7.25;2.33;;;7.60;99.90;;;;;;4133918;28;20049;-64
2022/02/06 04:24:55;;;;;;;5.78;2.15;;;7.60;99.90;;;;;;4135098;28;20502;-64
2022/02/06 04:26:56;;;;;;;7.30;2.28;;;7.60;99.90;;;;;;4131617;28;20482;-64
2022/02/06 04:28:56;;;;;;;5.82;2.13;;;7.60;99.90;;;;;;4135200;28;20087;-65
2022/02/06 04:30:57;;;;;;;7.90;1.90;;;7.70;99.90;;;;;;4134564;28;20042;-65
2022/02/06 04:32:57;;;;;;;9.90;2.45;;;7.70;99.90;;;;;;4131822;28;20089;-64
2022/02/06 04:34:58;;;;;;;8.00;1.67;;;7.70;99.90;;;;;;4135013;28;20052;-65
2022/02/06 04:37:08;;;;;;;5.18;1.85;;;7.70;99.90;;;;;;4130681;28;20073;-64
2022/02/06 04:39:25;;;;;;;9.52;2.30;;;7.70;99.90;;;;;;4132889;28;20030;-64
2022/02/06 04:41:45;;;;;;;10.73;2.60;;;7.70;99.90;;;;;;4130598;28;20042;-64
2022/02/06 04:44:15;;;;;;;7.00;1.98;;;7.70;99.90;;;;;;4138139;28;20114;-64
2022/02/06 04:49:31;;;;;;;7.88;2.60;;;7.70;99.90;;;;;;4062470;29;20520;-64
2022/02/06 04:54:10;;;;;;;6.60;2.25;;;7.70;99.90;;;;;;4135738;28;20092;-64
2022/02/06 05:14:38;;;;;;;6.38;2.10;;;7.70;99.90;;;;;;4133250;28;20488;-64
2022/02/06 05:33:55;;;;;;;6.13;1.63;;;7.70;99.90;;;;;;4132526;28;20046;-64
2022/02/06 05:35:55;;;;;;;6.25;1.50;;;7.80;99.90;;;;;;4134497;28;20045;-64
2022/02/06 05:37:56;;;;;;;11.45;2.33;;;7.80;99.90;;;;;;4136495;28;20034;-65
2022/02/06 05:39:57;;;;;;;9.25;2.17;;;7.80;99.90;;;;;;4131914;28;20044;-65
2022/02/06 05:41:57;;;;;;;4.80;1.73;;;7.80;99.90;;;;;;4134122;28;20034;-65
2022/02/06 05:43:58;;;;;;;4.13;1.70;;;7.80;99.90;;;;;;4133845;28;20375;-65
2022/02/06 05:45:58;;;;;;;4.47;1.52;;;7.80;99.90;;;;;;4132686;28;20100;-65
2022/02/06 05:47:59;;;;;;;4.82;1.90;;;7.80;99.90;;;;;;4132521;28;20485;-65
2022/02/06 05:50:00;;;;;;;6.93;1.88;;;7.80;99.90;;;;;;4130843;28;20220;-65
2022/02/06 05:52:00;;;;;;;3.67;1.60;;;7.80;99.90;;;;;;4133130;28;20542;-65
2022/02/06 05:54:01;;;;;;;6.18;1.70;;;7.80;99.90;;;;;;4136679;28;20122;-65
2022/02/06 05:56:01;;;;;;;2.60;1.38;;;7.90;99.90;;;;;;4134802;28;20473;-65
2022/02/06 05:58:02;;;;;;;6.25;2.08;;;7.90;99.90;;;;;;4135555;28;20042;-65
2022/02/06 06:00:05;;;;;;;7.50;2.08;;;7.90;99.90;;;;;;4132194;28;20034;-65
2022/02/06 06:02:06;;;;;;;5.28;2.08;;;7.90;99.90;;;;;;4131883;28;20062;-65
2022/02/06 06:04:06;;;;;;;3.28;1.55;;;7.80;99.90;;;;;;4133415;28;20050;-64
2022/02/06 06:06:07;;;;;;;3.58;1.48;;;7.90;99.90;;;;;;4136914;28;20116;-65
2022/02/06 06:08:08;;;;;;;5.75;2.15;;;7.90;99.90;;;;;;4135166;28;20042;-65
2022/02/06 06:10:10;;;;;;;6.88;1.65;;;7.90;99.90;;;;;;4132513;28;20042;-65
2022/02/06 06:12:10;;;;;;;19.40;2.13;;;7.90;99.90;;;;;;4133850;28;20512;-65
2022/02/06 06:14:11;;;;;;;7.90;2.10;;;7.90;99.90;;;;;;4138048;28;20039;-65
2022/02/06 06:16:12;;;;;;;7.28;1.92;;;7.90;99.90;;;;;;4135073;28;20478;-64
2022/02/06 06:18:14;;;;;;;5.70;1.58;;;7.90;99.90;;;;;;4140235;28;20030;-64
2022/02/06 06:20:18;;;;;;;5.43;2.05;;;7.90;99.90;;;;;;4140238;28;20121;-65
2022/02/06 06:22:19;;;;;;;6.55;1.63;;;7.90;99.90;;;;;;4137894;28;20062;-65
2022/02/06 06:24:25;;;;;;;5.72;1.63;;;7.90;99.90;;;;;;4141268;28;20084;-65
2022/02/06 06:26:27;;;;;;;5.95;1.58;;;7.90;99.90;;;;;;4120496;28;20038;-64
2022/02/06 06:28:28;;;;;;;5.72;1.63;;;7.90;99.90;;;;;;4140875;28;20066;-64
2022/02/06 06:30:28;;;;;;;6.72;1.73;;;7.90;99.90;;;;;;4140703;28;20397;-65
2022/02/06 06:32:29;;;;;;;5.15;1.80;;;7.90;99.90;;;;;;4142464;28;20030;-64
2022/02/06 06:34:29;;;;;;;4.28;1.40;;;7.90;99.90;;;;;;4141970;28;20462;-64
2022/02/06 06:36:32;;;;;;;7.75;1.80;;;7.90;99.90;;;;;;4140591;28;20038;-65
2022/02/06 06:38:33;;;;;;;6.43;1.73;;;7.90;99.90;;;;;;4140938;28;20040;-64
2022/02/06 06:40:34;;;;;;;3.50;1.52;;;7.90;99.90;;;;;;4120397;28;20117;-64
2022/02/06 06:42:35;;;;;;;6.47;1.80;;;7.90;99.90;;;;;;4138077;28;20042;-64
2022/02/06 06:44:36;;;;;;;6.55;1.70;;;7.90;99.90;;;;;;4137058;28;20046;-64
2022/02/06 06:46:37;;;;;;;5.95;1.45;;;7.90;99.90;;;;;;4143727;28;20073;-65
2022/02/06 06:48:38;;;;;;;5.35;1.55;;;8.00;99.90;;;;;;4130056;28;20516;-64
2022/02/06 06:50:38;;;;;;;6.25;1.58;;;8.00;99.90;;;;;;4144206;28;20404;-64
2022/02/06 06:52:39;;;;;;;5.07;1.70;;;7.90;99.90;;;;;;4143032;28;20370;-64
2022/02/06 06:54:46;;;;;;;5.22;1.60;;;8.00;99.90;;;;;;4143445;28;20066;-64
2022/02/06 06:58:53;;;;;;;5.53;1.90;;;8.00;99.90;;;;;;4141642;28;20084;-65
2022/02/06 07:03:04;;;;;;;4.30;1.60;;;8.00;99.90;;;;;;4147900;28;20041;-65
2022/02/06 07:05:05;;;;;;;3.95;1.75;;;7.90;99.90;;;;;;4135435;28;20034;-66
2022/02/06 07:07:05;;;;;;;5.53;1.80;;;8.00;99.90;;;;;;4141892;28;20046;-64
2022/02/06 07:09:06;;;;;;;5.53;1.30;;;8.00;99.90;;;;;;4144001;28;20035;-64
2022/02/06 07:11:07;;;;;;;4.88;1.80;;;8.00;99.90;;;;;;4141116;28;20042;-65
2022/02/06 07:13:07;;;;;;;3.45;1.13;;;8.00;99.90;;;;;;4139515;28;20050;-64
2022/02/06 07:15:08;;;;;;;7.35;1.95;;;8.10;99.90;;;;;;4141033;28;20046;-65
2022/02/06 07:17:09;;;;;;;5.80;2.00;;;8.00;99.90;;;;;;4141832;28;20888;-64
2022/02/06 07:19:09;;;;;;;3.97;1.45;;;8.10;99.90;;;;;;4140549;28;20046;-64
2022/02/06 07:21:10;;;;;;;4.25;1.42;;;8.00;99.90;;;;;;4141033;28;20132;-65
2022/02/06 07:23:11;;;;;;;8.77;2.22;;;8.10;99.90;;;;;;4141195;28;20034;-64
2022/02/06 07:25:12;;;;;;;3.78;1.35;;;8.10;99.90;;;;;;4140657;28;20394;-65
2022/02/06 07:27:25;;;;;;;7.68;1.65;;;8.00;99.90;;;;;;4138457;28;20038;-65
2022/02/06 07:29:26;;;;;;;4.97;1.75;;;8.10;99.90;;;;;;4140312;28;20043;-65
2022/02/06 07:31:27;;;;;;;4.75;1.70;;;8.10;99.90;;;;;;4122864;28;20047;-64
2022/02/06 07:33:27;;;;;;;7.13;1.83;;;8.10;99.90;;;;;;4141494;28;20452;-65
2022/02/06 07:35:28;;;;;;;5.85;1.80;;;8.10;99.90;;;;;;4134803;28;20112;-66
2022/02/06 07:37:29;;;;;;;3.55;1.55;;;8.10;99.90;;;;;;4140121;28;20050;-64
2022/02/06 07:39:29;;;;;;;5.05;1.80;;;8.10;99.90;;;;;;4142552;28;20483;-65
2022/02/06 07:41:30;;;;;;;4.65;1.42;;;8.10;99.90;;;;;;4139785;28;20061;-65
2022/02/06 07:43:31;;;;;;;6.40;1.75;;;8.10;99.90;;;;;;4139523;28;20524;-64
2022/02/06 07:45:34;;;;;;;3.63;1.27;;;8.10;99.90;;;;;;4143294;28;20041;-65
2022/02/06 07:47:37;;;;;;;6.13;1.60;;;8.10;99.90;;;;;;4138838;28;20404;-64
2022/02/06 07:49:38;;;;;;;8.63;1.90;;;8.10;99.90;;;;;;4126922;28;20049;-64
2022/02/06 07:51:39;;;;;;;6.80;2.17;;;8.10;99.90;;;;;;4141286;28;20034;-64
2022/02/06 07:53:40;;;;;;;4.00;1.17;;;8.10;99.90;;;;;;4141452;28;20078;-65
2022/02/06 07:55:40;;;;;;;8.40;1.85;;;8.10;99.90;;;;;;4135797;28;20038;-65
2022/02/06 07:57:41;;;;;;;6.97;1.67;;;8.10;99.90;;;;;;4139959;28;20057;-64
2022/02/06 07:59:42;;;;;;;3.92;1.63;;;8.00;99.90;;;;;;4139643;28;20045;-65
2022/02/06 08:01:42;;;;;;;3.45;1.77;;;8.00;99.90;;;;;;4139030;28;20045;-65
2022/02/06 08:03:43;;;;;;;4.03;1.90;;;8.00;99.90;;;;;;4141654;28;20034;-64
2022/02/06 08:05:43;;;;;;;5.38;1.80;;;8.00;99.90;;;;;;4141902;28;20042;-65
2022/02/06 08:07:47;;;;;;;4.15;1.67;;;8.00;99.90;;;;;;4139104;28;20048;-64
2022/02/06 08:09:58;;;;;;;4.35;1.67;;;8.00;99.90;;;;;;4139800;28;20075;-64
2022/02/06 08:11:59;;;;;;;7.05;1.58;;;8.10;99.90;;;;;;4134343;28;20084;-65
2022/02/06 08:14:00;;;;;;;5.60;1.90;;;8.10;99.90;;;;;;4144105;28;20493;-64
2022/02/06 08:16:02;;;;;;;3.00;1.40;;;8.10;99.90;;;;;;4141895;28;20045;-64
2022/02/06 08:18:04;;;;;;;1.85;0.93;;;8.00;99.90;;;;;;4137827;28;20105;-64
2022/02/06 08:20:08;;;;;;;4.88;1.52;;;8.00;99.90;;;;;;4143414;28;20044;-66
2022/02/06 08:22:09;;;;;;;5.68;1.40;;;8.00;99.90;;;;;;4141936;28;20038;-64
2022/02/06 08:24:09;;;;;;;4.30;1.48;;;8.00;99.90;;;;;;4139918;28;20505;-64
2022/02/06 08:26:10;;;;;;;6.53;1.55;;;8.00;99.90;;;;;;4136614;28;20056;-64
2022/02/06 08:28:11;;;;;;;3.90;1.65;;;8.00;99.90;;;;;;4136683;28;20069;-64
2022/02/06 08:30:13;;;;;;;7.45;1.80;;;8.00;99.90;;;;;;4142080;28;20038;-66
2022/02/06 08:32:16;;;;;;;6.75;1.40;;;8.00;99.90;;;;;;4140817;28;20493;-64
2022/02/06 08:34:16;;;;;;;2.67;0.93;;;8.10;99.90;;;;;;4139361;28;20041;-65
2022/02/06 08:36:17;;;;;;;4.05;1.20;;;8.00;99.90;;;;;;4129840;28;20042;-64
2022/02/06 08:38:18;;;;;;;3.50;1.02;;;8.10;99.90;;;;;;4136078;28;20112;-65
2022/02/06 08:40:19;;;;;;;6.43;1.25;;;8.10;99.90;;;;;;4141268;28;20453;-66
2022/02/06 08:42:19;;;;;;;3.30;1.30;;;8.10;99.90;;;;;;4140953;28;20077;-65
2022/02/06 08:44:20;;;;;;;3.22;1.35;;;8.10;99.90;;;;;;4134285;28;20076;-65
2022/02/06 08:46:21;;;;;;;2.38;1.08;;;8.10;99.90;;;;;;4136076;28;20046;-65
2022/02/06 08:48:22;;;;;;;1.73;1.00;;;8.10;99.90;;;;;;4138280;28;20034;-65
2022/02/06 08:50:23;;;;;;;2.22;1.25;;;8.10;99.90;;;;;;4137872;28;20097;-65
2022/02/06 08:52:24;;;;;;;2.92;1.25;;;8.10;99.90;;;;;;4140821;28;20556;-64
2022/02/06 08:54:28;;;;;;;3.75;1.13;;;8.10;99.90;;;;;;4138276;28;20081;-65
2022/02/06 08:56:30;;;;;;;4.55;1.50;;;8.10;99.90;;;;;;4138665;28;20056;-64
2022/02/06 08:58:31;;;;;;;5.90;1.33;;;8.10;99.90;;;;;;4140675;28;20057;-64
2022/02/06 09:00:32;;;;;;;3.28;1.20;;;8.10;99.90;;;;;;4138174;28;20396;-64
2022/02/06 09:02:32;;;;;;;3.10;1.23;;;8.10;99.90;;;;;;4141107;28;20911;-64
2022/02/06 09:04:33;;;;;;;4.57;1.23;;;8.10;99.90;;;;;;4139165;28;20030;-65
2022/02/06 09:06:36;;;;;;;4.00;1.40;;;8.10;99.90;;;;;;4134711;28;20452;-64
2022/02/06 09:08:37;;;;;;;7.28;1.67;;;8.20;99.90;;;;;;4139846;28;20041;-64
2022/02/06 09:10:38;;;;;;;3.88;1.00;;;8.20;99.90;;;;;;4137209;28;20077;-64
2022/02/06 09:12:43;;;;;;;5.47;1.33;;;8.20;99.90;;;;;;4138570;28;20054;-64
2022/02/06 09:14:45;;;;;;;3.15;1.10;;;8.20;99.90;;;;;;4140050;28;20044;-65
2022/02/06 09:16:46;;;;;;;2.38;1.10;;;8.20;99.90;;;;;;4138251;28;20093;-64
2022/02/06 09:18:46;;;;;;;8.55;1.50;;;8.20;99.90;;;;;;4138543;28;20422;-64
2022/02/06 09:20:47;;;;;;;3.47;1.38;;;8.20;99.90;;;;;;4135948;28;20034;-64
2022/02/06 09:22:47;;;;;;;4.43;1.58;;;8.20;99.90;;;;;;4135890;28;20172;-64
2022/02/06 09:24:48;;;;;;;2.63;1.25;;;8.30;99.90;;;;;;4136332;28;20047;-64
2022/02/06 09:26:49;;;;;;;2.13;1.13;;;8.30;99.90;;;;;;4135680;28;20066;-64
2022/02/06 09:28:49;;;;;;;2.40;1.10;;;8.30;99.90;;;;;;4137142;28;20093;-65
2022/02/06 09:30:50;;;;;;;4.32;1.17;;;8.30;99.90;;;;;;4136470;28;20482;-65
2022/02/06 09:36:53;;;;;;;4.38;1.15;;;8.30;99.90;;;;;;4133668;28;20045;-65
2022/02/06 09:38:53;;;;;;;3.50;1.30;;;8.30;99.90;;;;;;4138326;28;20065;-64
2022/02/06 09:40:54;;;;;;;3.22;1.40;;;8.30;99.90;;;;;;4136579;28;20455;-65
2022/02/06 09:42:58;;;;;;;2.05;0.70;;;8.40;99.90;;;;;;4124235;28;20121;-64
2022/02/06 09:44:59;;;;;;;4.72;0.98;;;8.40;99.90;;;;;;4133770;28;20053;-64
2022/02/06 09:47:00;;;;;;;2.10;1.00;;;8.40;99.90;;;;;;4133162;28;20057;-64
2022/02/06 09:49:02;;;;;;;3.50;0.85;;;8.40;99.90;;;;;;4138594;28;20030;-64
2022/02/06 09:51:03;;;;;;;1.48;0.70;;;8.40;99.90;;;;;;4134824;28;20031;-64
2022/02/06 09:53:04;;;;;;;2.45;0.70;;;8.40;99.90;;;;;;4138578;28;20483;-64
2022/02/06 09:55:10;;;;;;;2.88;0.90;;;8.40;99.90;;;;;;4135401;28;20056;-65
2022/02/06 09:57:12;;;;;;;1.50;0.63;;;8.40;99.90;;;;;;4138549;28;20528;-64
2022/02/06 09:59:21;;;;;;;1.58;0.95;;;8.40;99.90;;;;;;4136523;28;20060;-64
2022/02/06 10:01:23;;;;;;;1.60;0.52;;;8.40;99.90;;;;;;4139599;28;20053;-64
2022/02/06 10:03:24;;;;;;;2.00;0.80;;;8.40;99.90;;;;;;4138936;28;20033;-64
2022/02/06 10:05:33;;;;;;;2.75;0.80;;;8.40;99.90;;;;;;4137401;28;20053;-64
2022/02/06 10:07:43;;;;;;;2.13;0.80;;;8.40;99.90;;;;;;4134517;28;20057;-64
2022/02/06 10:09:45;;;;;;;3.45;0.88;;;8.40;99.90;;;;;;4137046;28;20062;-64
2022/02/06 10:11:49;;;;;;;2.72;1.00;;;8.40;99.90;;;;;;4139326;28;20038;-64
2022/02/06 10:13:50;;;;;;;3.13;0.77;;;8.40;99.90;;;;;;4134906;28;20038;-66
2022/02/06 10:15:50;;;;;;;8.70;1.20;;;8.40;99.90;;;;;;4135009;28;20500;-65
2022/02/06 10:17:51;;;;;;;2.75;0.82;;;8.30;99.90;;;;;;4140437;28;20048;-66
2022/02/06 10:19:57;;;;;;;2.67;0.70;;;8.40;99.90;;;;;;4136527;28;20580;-65
2022/02/06 10:21:59;;;;;;;2.28;0.73;;;8.40;99.90;;;;;;4132441;28;20407;-64
2022/02/06 10:24:07;;;;;;;2.83;0.90;;;8.40;99.90;;;;;;4138544;28;20036;-64
2022/02/06 10:26:28;;;;;;;2.90;0.85;;;8.40;99.90;;;;;;4137483;28;20052;-64
2022/02/06 10:28:36;;;;;;;1.95;0.93;;;8.30;99.90;;;;;;4138973;28;20125;-64
2022/02/06 10:30:45;;;;;;;1.45;0.63;;;8.30;99.90;;;;;;4135370;28;20069;-64
2022/02/06 10:32:46;;;;;;;1.85;0.73;;;8.30;99.90;;;;;;4133390;28;20435;-64
2022/02/06 10:34:47;;;;;;;1.67;0.80;;;8.30;99.90;;;;;;4136819;28;20117;-64
2022/02/06 10:36:48;;;;;;;2.25;0.90;;;8.30;99.90;;;;;;4136273;28;20042;-64
2022/02/06 10:39:01;;;;;;;2.30;0.98;;;8.30;99.90;;;;;;4134888;28;20057;-64
2022/02/06 10:41:17;;;;;;;2.53;0.83;;;8.30;99.90;;;;;;4132095;28;20481;-64
2022/02/06 10:43:17;;;;;;;1.35;0.50;;;8.30;99.90;;;;;;4135252;28;20277;-64
2022/02/06 10:45:25;;;;;;;2.17;1.17;;;8.30;99.90;;;;;;4136401;28;20392;-65
2022/02/06 10:47:32;;;;;;;0.52;0.50;;;8.30;99.90;;;;;;4137010;28;20409;-64
2022/02/06 10:49:33;;;;;;;3.67;0.90;;;8.30;99.90;;;;;;4137949;28;20049;-64
2022/02/06 10:51:44;;;;;;;4.10;0.75;;;8.30;99.90;;;;;;4137998;28;20396;-64
2022/02/06 10:53:58;;;;;;;1.73;0.70;;;8.30;99.90;;;;;;4135681;28;20404;-64
2022/02/06 10:56:01;;;;;;;1.40;0.70;;;8.30;99.90;;;;;;4134901;28;20084;-65
2022/02/06 10:58:04;;;;;;;4.15;0.85;;;8.30;99.90;;;;;;4136116;28;20030;-64
2022/02/06 11:00:07;;;;;;;1.38;0.50;;;8.30;99.90;;;;;;4137987;28;20037;-66
2022/02/06 11:02:17;;;;;;;1.63;0.70;;;8.20;99.90;;;;;;4120573;28;20501;-64
2022/02/06 11:04:29;;;;;;;1.40;0.68;;;8.20;99.90;;;;;;4139754;28;20113;-65
2022/02/06 11:06:44;;;;;;;1.52;0.70;;;8.30;99.90;;;;;;4139874;28;20050;-64
2022/02/06 11:08:45;;;;;;;2.00;0.60;;;8.30;99.90;;;;;;4138346;28;20263;-64
2022/02/06 11:10:57;;;;;;;3.95;0.80;;;8.30;99.90;;;;;;4136079;28;20038;-64
2022/02/06 11:13:02;;;;;;;2.28;0.70;;;8.30;99.90;;;;;;4139357;28;20108;-64
2022/02/06 11:15:04;;;;;;;4.70;0.80;;;8.30;99.90;;;;;;4138878;28;20491;-65
2022/02/06 11:17:15;;;;;;;5.70;1.10;;;8.30;99.90;;;;;;4125552;28;20038;-64
2022/02/06 11:19:20;;;;;;;1.30;0.73;;;8.30;99.90;;;;;;4135973;28;20125;-64
2022/02/06 11:21:24;;;;;;;1.13;0.50;;;8.30;99.90;;;;;;4139892;28;20503;-66
2022/02/06 11:23:46;;;;;;;1.05;0.63;;;8.30;99.90;;;;;;4143460;28;20084;-65
2022/02/06 11:25:49;;;;;;;3.37;1.30;;;8.30;99.90;;;;;;4141206;28;20036;-64
2022/02/06 11:27:50;;;;;;;0.85;0.47;;;8.30;99.90;;;;;;4138044;28;20049;-64
2022/02/06 11:29:52;;;;;;;1.23;0.63;;;8.30;99.90;;;;;;4138791;28;20046;-64
2022/02/06 11:31:55;;;;;;;2.78;0.80;;;8.40;99.90;;;;;;4140544;28;20096;-64
2022/02/06 11:33:56;;;;;;;1.80;0.63;;;8.40;99.90;;;;;;4143105;28;20062;-64
2022/02/06 11:36:07;;;;;;;2.00;0.60;;;8.40;99.90;;;;;;4143419;28;20061;-64
2022/02/06 11:45:33;;;;;;;1.08;0.45;;;8.40;99.90;;;;;;4137281;28;20058;-64
2022/02/06 11:47:38;;;;;;;1.83;1.00;;;8.40;99.90;;;;;;4136729;28;20542;-64
2022/02/06 11:49:42;;;;;;;1.75;0.50;;;8.40;99.90;;;;;;4137621;28;20104;-64
2022/02/06 11:51:59;;;;;;;2.25;0.75;;;8.40;99.90;;;;;;4133894;28;25443;-64
2022/02/06 11:54:35;;;;;;;1.20;0.70;;;8.50;99.90;;;;;;4140701;28;20041;-65
2022/02/06 11:56:38;;;;;;;2.05;0.73;;;8.50;99.90;;;;;;4140341;28;20060;-64
2022/02/06 11:58:40;;;;;;;0.80;0.50;;;8.50;99.90;;;;;;4140285;28;20026;-64
2022/02/06 12:00:41;;;;;;;2.65;1.23;;;8.40;99.90;;;;;;4140791;28;20089;-64
2022/02/06 12:02:47;;;;;;;0.95;0.57;;;8.40;99.90;;;;;;4141696;28;20054;-64
2022/02/06 12:05:16;;;;;;;1.25;0.60;;;8.50;99.90;;;;;;4139385;28;20389;-64
2022/02/06 12:07:17;;;;;;;0.55;0.30;;;8.50;99.90;;;;;;4138695;28;20089;-64
2022/02/06 12:09:23;;;;;;;4.40;0.70;;;8.50;99.90;;;;;;4143103;28;20038;-64
2022/02/06 12:11:27;;;;;;;1.33;0.50;;;8.50;99.90;;;;;;4142016;28;20045;-64
2022/02/06 12:13:32;;;;;;;1.25;0.52;;;8.60;99.90;;;;;;4137264;28;20138;-64
2022/02/06 12:15:51;;;;;;;1.55;0.50;;;8.50;99.90;;;;;;4139590;28;20049;-64
2022/02/06 12:18:08;;;;;;;1.75;0.47;;;8.50;99.90;;;;;;4137153;28;20046;-64
2022/02/06 12:20:15;;;;;;;1.45;0.60;;;8.60;99.90;;;;;;4142754;28;20046;-65
2022/02/06 12:22:28;;;;;;;1.15;0.60;;;8.60;99.90;;;;;;4129153;28;20090;-64
2022/02/06 12:24:41;;;;;;;2.10;0.63;;;8.60;99.90;;;;;;4136523;28;20042;-64
2022/02/06 12:26:44;;;;;;;;;;;8.60;99.90;;;;;;4138129;28;20404;-64
2022/02/06 12:28:49;;;;;;;1.50;0.47;;;8.70;99.90;;;;;;4138215;28;19909;-64
2022/02/06 12:31:19;;;;;;;0.50;0.50;;;8.70;99.90;;;;;;4136454;28;20041;-64
2022/02/06 12:33:25;;;;;;;1.58;0.75;;;8.70;99.90;;;;;;4128924;28;20115;-64
2022/02/06 12:37:35;;;;;;;1.10;0.70;;;8.70;99.90;;;;;;4138098;28;20488;-64
2022/02/06 12:39:36;;;;;;;2.80;0.50;;;8.80;99.90;;;;;;4137475;28;20041;-64
2022/02/06 12:41:44;;;;;;;2.75;0.25;;;8.80;99.90;;;;;;4137508;28;20031;-64
2022/02/06 12:43:53;;;;;;;1.10;0.50;;;8.80;99.90;;;;;;4140145;28;20166;-64
2022/02/06 12:45:55;;;;;;;1.17;0.50;;;8.80;99.90;;;;;;4141414;28;20056;-66
2022/02/06 12:48:02;;;;;;;1.67;0.52;;;8.90;99.90;;;;;;4141485;28;20045;-66
2022/02/06 12:50:22;;;;;;;5.75;0.60;;;8.90;99.90;;;;;;4142529;28;20057;-67
2022/02/06 12:52:23;;;;;;;1.85;0.50;;;8.90;99.90;;;;;;4138535;28;20046;-65
2022/02/06 12:54:24;;;;;;;0.60;0.45;;;8.90;99.90;;;;;;4136602;28;20038;-64
2022/02/06 12:56:26;;;;;;;2.38;0.43;;;8.80;99.90;;;;;;4141241;28;20105;-65
2022/02/06 12:58:28;;;;;;;2.53;0.47;;;8.70;99.90;;;;;;4142213;28;20037;-65
2022/02/06 13:00:38;;;;;;;3.17;0.40;;;8.60;99.90;;;;;;4139987;28;20401;-64